Time;durP1;ratioP1;P1;durP2;ratioP2;P2;SDS_P1;SDS_P2;PMS_P1;PMS_P2;Temp;Humidity;BMP_temperature;BMP_pressure;BME280_temperature;BME280_humidity;BME280_pressure;Samples;Min_cycle;Max_cycle;Signal;HPM_P1;HPM_P2
2020/12/12 00:03:54;;;;;;;21.83;12.35;;;1.30;99.90;;;;;;8295791;28;20391;-68
2020/12/12 00:07:55;;;;;;;22.58;11.82;;;1.30;99.90;;;;;;8296508;28;20065;-68
2020/12/12 00:11:55;;;;;;;25.90;12.85;;;1.40;99.90;;;;;;8293995;28;20501;-68
2020/12/12 00:15:56;;;;;;;21.38;11.07;;;1.10;99.90;;;;;;8293442;28;20032;-68
2020/12/12 00:19:56;;;;;;;21.05;11.75;;;1.40;99.90;;;;;;8294395;28;20053;-68
2020/12/12 00:23:57;;;;;;;22.58;12.38;;;1.00;99.90;;;;;;8294524;28;20025;-67
2020/12/12 00:27:57;;;;;;;22.65;12.43;;;0.90;99.90;;;;;;8294319;28;20030;-68
2020/12/12 00:31:59;;;;;;;22.25;11.70;;;1.00;99.90;;;;;;8294609;28;20369;-68
2020/12/12 00:36:00;;;;;;;20.92;11.15;;;0.90;99.90;;;;;;8293481;28;20130;-68
2020/12/12 00:40:00;;;;;;;21.55;10.85;;;1.10;99.90;;;;;;8293602;28;20036;-68
2020/12/12 00:44:01;;;;;;;19.38;10.68;;;1.10;99.90;;;;;;8295270;28;20041;-68
2020/12/12 00:48:02;;;;;;;19.60;11.52;;;1.10;99.90;;;;;;8294552;28;20047;-67
2020/12/12 00:52:03;;;;;;;17.67;10.20;;;1.10;99.90;;;;;;8294623;28;20056;-67
2020/12/12 00:56:03;;;;;;;17.67;10.80;;;0.90;99.90;;;;;;8294584;28;20030;-68
2020/12/12 01:00:04;;;;;;;23.40;10.70;;;0.70;99.90;;;;;;8292529;28;20044;-68
2020/12/12 01:04:05;;;;;;;21.85;11.35;;;0.50;99.90;;;;;;8294080;28;20440;-68
2020/12/12 01:08:05;;;;;;;21.45;10.77;;;0.80;99.90;;;;;;8293657;28;20030;-68
2020/12/12 01:12:06;;;;;;;22.92;12.07;;;0.60;99.90;;;;;;8292722;28;20033;-68
2020/12/12 01:16:11;;;;;;;22.27;12.25;;;0.70;99.90;;;;;;8291708;28;20030;-68
2020/12/12 01:20:12;;;;;;;21.08;10.80;;;1.00;99.90;;;;;;8292759;28;20113;-68
2020/12/12 01:24:16;;;;;;;19.90;11.32;;;1.10;99.90;;;;;;8292608;28;20026;-67
2020/12/12 01:28:18;;;;;;;22.95;12.25;;;1.10;99.90;;;;;;8292394;28;20029;-67
2020/12/12 01:32:19;;;;;;;23.65;11.40;;;1.00;99.90;;;;;;8294080;28;20057;-68
2020/12/12 01:36:19;;;;;;;22.30;11.20;;;1.10;99.90;;;;;;8293871;28;20030;-68
2020/12/12 01:40:20;;;;;;;27.88;12.45;;;0.90;99.90;;;;;;8293757;28;20030;-68
2020/12/12 01:44:21;;;;;;;23.23;12.10;;;0.90;99.90;;;;;;8293688;28;20076;-68
2020/12/12 01:48:21;;;;;;;22.70;12.68;;;1.10;99.90;;;;;;8293697;28;20030;-68
2020/12/12 01:52:23;;;;;;;22.45;12.10;;;1.00;99.90;;;;;;8292083;28;20036;-68
2020/12/12 01:56:27;;;;;;;25.88;12.98;;;1.20;99.90;;;;;;8291681;28;20438;-68
2020/12/12 02:00:28;;;;;;;22.80;12.30;;;0.90;99.90;;;;;;8294110;28;20487;-67
2020/12/12 02:04:30;;;;;;;25.98;13.30;;;1.00;99.90;;;;;;8292885;28;20075;-67
2020/12/12 02:08:30;;;;;;;25.60;13.38;;;0.90;99.90;;;;;;8291472;28;20034;-68
2020/12/12 02:12:31;;;;;;;29.38;14.55;;;0.80;99.90;;;;;;8314787;28;20049;-68
2020/12/12 02:16:54;;;;;;;29.27;13.63;;;0.70;99.90;;;;;;8294449;28;20092;-68
2020/12/12 02:20:58;;;;;;;23.10;13.00;;;0.60;99.90;;;;;;8298809;28;20030;-67
2020/12/12 02:24:59;;;;;;;26.27;12.70;;;0.40;99.90;;;;;;8298383;28;20038;-68
2020/12/12 02:28:59;;;;;;;22.67;12.75;;;0.40;99.90;;;;;;8298619;28;20032;-68
2020/12/12 02:33:00;;;;;;;27.30;13.93;;;0.60;99.90;;;;;;8297492;28;20022;-69
2020/12/12 02:37:00;;;;;;;23.83;11.80;;;0.40;99.90;;;;;;8298850;28;20025;-68
2020/12/12 02:41:01;;;;;;;27.58;14.52;;;0.30;99.90;;;;;;8296848;28;20033;-68
2020/12/12 02:45:02;;;;;;;30.10;14.07;;;0.30;99.90;;;;;;8297236;28;20022;-68
2020/12/12 02:49:03;;;;;;;29.25;14.85;;;0.10;99.90;;;;;;8295168;28;20087;-68
2020/12/12 02:53:03;;;;;;;23.75;13.00;;;0.10;99.90;;;;;;8297222;28;20026;-68
2020/12/12 02:57:04;;;;;;;24.00;12.70;;;0.10;99.90;;;;;;8296252;28;20037;-68
2020/12/12 03:01:05;;;;;;;25.83;13.60;;;0.10;99.90;;;;;;8296825;28;20066;-69
2020/12/12 03:05:07;;;;;;;30.73;15.20;;;0.30;99.90;;;;;;8294017;28;20109;-67
2020/12/12 03:09:08;;;;;;;28.55;14.63;;;0.60;99.90;;;;;;8296265;28;20069;-68
2020/12/12 03:13:08;;;;;;;23.70;12.35;;;0.60;99.90;;;;;;8295636;28;20045;-68
2020/12/12 03:17:09;;;;;;;26.73;13.70;;;0.70;99.90;;;;;;8296173;28;20030;-69
2020/12/12 03:21:10;;;;;;;29.27;14.20;;;0.40;99.90;;;;;;8296006;28;20426;-69
2020/12/12 03:25:10;;;;;;;24.55;13.82;;;0.10;99.90;;;;;;8294505;28;20062;-68
2020/12/12 03:29:11;;;;;;;28.48;15.30;;;0.30;99.90;;;;;;8295375;28;20056;-67
2020/12/12 03:33:11;;;;;;;27.73;15.07;;;0.50;99.90;;;;;;8296070;28;20026;-68
2020/12/12 03:37:12;;;;;;;29.00;14.93;;;0.50;99.90;;;;;;8296471;28;20482;-68
2020/12/12 03:41:13;;;;;;;27.98;14.05;;;0.50;99.90;;;;;;8295948;28;20088;-68
2020/12/12 03:45:13;;;;;;;24.80;13.23;;;0.60;99.90;;;;;;8294698;28;20022;-69
2020/12/12 03:49:14;;;;;;;29.40;13.80;;;0.70;99.90;;;;;;8295781;28;20022;-68
2020/12/12 03:53:15;;;;;;;24.50;13.48;;;0.60;99.90;;;;;;8293894;28;20022;-68
2020/12/12 03:57:15;;;;;;;27.83;14.82;;;0.40;99.90;;;;;;8295804;28;20102;-68
2020/12/12 04:01:16;;;;;;;30.10;15.25;;;0.30;99.90;;;;;;8296079;28;20033;-68
2020/12/12 04:05:16;;;;;;;28.63;14.10;;;0.20;99.90;;;;;;8295923;28;20669;-68
2020/12/12 04:09:17;;;;;;;28.73;15.02;;;0.40;99.90;;;;;;8293989;28;20068;-68
2020/12/12 04:13:17;;;;;;;30.25;14.10;;;0.60;99.90;;;;;;8295797;28;20042;-68
2020/12/12 04:17:18;;;;;;;27.55;14.50;;;0.90;99.90;;;;;;8295523;28;20026;-68
2020/12/12 04:21:18;;;;;;;24.45;11.95;;;0.90;99.90;;;;;;8295296;28;20534;-68
2020/12/12 04:25:19;;;;;;;24.38;12.32;;;1.00;99.90;;;;;;8295062;28;20041;-69
2020/12/12 04:29:19;;;;;;;23.05;12.13;;;1.00;99.90;;;;;;8294234;28;20637;-68
2020/12/12 04:33:20;;;;;;;21.85;11.65;;;0.90;99.90;;;;;;8294290;28;20037;-68
2020/12/12 04:37:21;;;;;;;24.20;12.85;;;1.00;99.90;;;;;;8294322;28;20041;-68
2020/12/12 04:41:21;;;;;;;23.55;12.23;;;1.00;99.90;;;;;;8294503;28;20101;-68
2020/12/12 04:45:23;;;;;;;22.40;12.43;;;1.00;99.90;;;;;;8294519;28;20026;-68
2020/12/12 04:49:23;;;;;;;25.90;13.05;;;1.00;99.90;;;;;;8292919;28;20057;-68
2020/12/12 04:53:25;;;;;;;22.20;11.10;;;1.10;99.90;;;;;;8294781;28;20048;-69
2020/12/12 04:57:25;;;;;;;26.58;12.30;;;1.20;99.90;;;;;;8294600;28;20025;-68
2020/12/12 05:01:26;;;;;;;21.88;11.80;;;1.20;99.90;;;;;;8294607;28;20488;-68
2020/12/12 05:05:27;;;;;;;23.88;12.13;;;1.10;99.90;;;;;;8294543;28;20124;-69
2020/12/12 05:09:27;;;;;;;18.92;10.82;;;1.30;99.90;;;;;;8291913;28;20029;-68
2020/12/12 05:13:28;;;;;;;20.45;11.65;;;1.50;99.90;;;;;;8294180;28;20711;-69
2020/12/12 05:17:29;;;;;;;23.40;11.18;;;1.50;99.90;;;;;;8293605;28;20029;-68
2020/12/12 05:21:30;;;;;;;22.30;11.98;;;1.40;99.90;;;;;;8292310;28;20057;-68
2020/12/12 05:25:30;;;;;;;24.42;12.25;;;1.30;99.90;;;;;;8293807;28;20108;-68
2020/12/12 05:29:31;;;;;;;20.60;11.27;;;1.60;99.90;;;;;;8292232;28;20026;-68
2020/12/12 05:33:31;;;;;;;19.35;10.82;;;1.60;99.90;;;;;;8292403;28;20125;-68
2020/12/12 05:37:41;;;;;;;23.02;12.80;;;1.50;99.90;;;;;;8292874;28;20080;-69
2020/12/12 05:41:43;;;;;;;20.07;10.77;;;1.50;99.90;;;;;;8292084;28;20117;-69
2020/12/12 05:45:43;;;;;;;22.80;10.70;;;1.60;99.90;;;;;;8293525;28;20050;-68
2020/12/12 05:49:47;;;;;;;22.40;10.82;;;1.90;99.90;;;;;;8277516;28;20029;-67
2020/12/12 05:53:48;;;;;;;19.50;11.13;;;2.10;99.90;;;;;;8278945;28;20030;-68
2020/12/12 05:57:52;;;;;;;22.27;10.80;;;2.20;99.90;;;;;;8264216;28;20085;-68
2020/12/12 06:01:54;;;;;;;20.65;10.90;;;2.10;99.90;;;;;;8288859;28;20018;-68
2020/12/12 06:06:02;;;;;;;18.40;10.18;;;2.10;99.90;;;;;;8298265;28;20517;-68
2020/12/12 06:10:05;;;;;;;19.48;10.10;;;2.20;99.90;;;;;;8297998;28;20109;-69
2020/12/12 06:14:06;;;;;;;16.27;9.80;;;2.20;99.90;;;;;;8295630;28;20044;-68
2020/12/12 06:18:35;;;;;;;18.88;9.90;;;2.40;99.90;;;;;;8294738;28;20045;-68
2020/12/12 06:22:37;;;;;;;19.30;10.43;;;2.40;99.90;;;;;;8275864;28;20029;-68
2020/12/12 06:26:59;;;;;;;22.77;11.35;;;2.40;99.90;;;;;;8280625;28;20097;-68
2020/12/12 06:31:00;;;;;;;21.20;11.60;;;2.40;99.90;;;;;;8308425;28;20089;-68
2020/12/12 06:35:00;;;;;;;18.65;10.35;;;2.40;99.90;;;;;;8295409;28;20038;-68
2020/12/12 06:39:21;;;;;;;18.92;11.23;;;2.40;99.90;;;;;;8289047;28;20030;-69
2020/12/12 06:43:34;;;;;;;19.85;10.90;;;2.50;99.90;;;;;;8284048;28;20022;-68
2020/12/12 06:47:37;;;;;;;21.90;11.27;;;2.50;99.90;;;;;;8282022;28;20392;-69
2020/12/12 06:51:38;;;;;;;19.13;9.43;;;2.40;99.90;;;;;;8273445;28;20506;-65
2020/12/12 06:55:38;;;;;;;21.77;10.77;;;2.50;99.90;;;;;;8268152;28;20037;-66
2020/12/12 06:59:39;;;;;;;23.70;12.48;;;2.60;99.90;;;;;;8266324;28;20169;-66
2020/12/12 07:03:54;;;;;;;23.35;12.88;;;2.60;99.90;;;;;;8272872;28;20553;-66
2020/12/12 07:08:04;;;;;;;22.52;12.02;;;2.50;99.90;;;;;;8293634;28;20026;-66
2020/12/12 07:12:05;;;;;;;24.10;12.35;;;2.70;99.90;;;;;;8290622;28;555988;-66
2020/12/12 07:16:06;;;;;;;28.70;15.20;;;2.60;99.90;;;;;;8296444;28;20060;-64
2020/12/12 07:20:07;;;;;;;27.35;14.60;;;2.60;99.90;;;;;;8284293;28;20025;-68
2020/12/12 07:24:08;;;;;;;27.27;14.80;;;2.40;99.90;;;;;;8262270;28;20109;-69
2020/12/12 07:28:09;;;;;;;30.17;14.55;;;2.30;99.90;;;;;;8265516;28;20507;-71
2020/12/12 07:32:09;;;;;;;25.73;13.80;;;2.30;99.90;;;;;;8282219;28;20487;-69
2020/12/12 07:36:10;;;;;;;26.92;14.63;;;2.40;99.90;;;;;;8294192;28;20682;-70
2020/12/12 07:40:11;;;;;;;27.17;15.00;;;2.40;99.90;;;;;;8295145;28;20030;-71
2020/12/12 07:44:12;;;;;;;30.55;14.68;;;2.40;99.90;;;;;;8294782;28;20029;-70
2020/12/12 07:48:13;;;;;;;27.90;15.15;;;2.40;99.90;;;;;;8292926;28;20030;-72
2020/12/12 07:52:14;;;;;;;27.85;15.30;;;2.60;99.90;;;;;;8269611;28;20553;-70
2020/12/12 07:56:15;;;;;;;28.08;15.38;;;2.80;99.90;;;;;;8285465;28;20029;-69
2020/12/12 08:00:16;;;;;;;29.70;15.15;;;3.00;99.90;;;;;;8293130;28;20034;-69
2020/12/12 08:04:21;;;;;;;27.80;15.82;;;3.20;99.90;;;;;;8294657;28;20029;-68
2020/12/12 08:08:22;;;;;;;28.48;14.23;;;3.40;99.90;;;;;;8289454;28;20060;-68
2020/12/12 08:12:29;;;;;;;22.83;13.32;;;3.50;99.90;;;;;;8263356;28;20050;-69
2020/12/12 08:16:43;;;;;;;24.75;14.05;;;3.40;99.90;;;;;;8260732;28;20048;-69
2020/12/12 08:20:44;;;;;;;24.23;13.02;;;3.70;99.90;;;;;;8285144;28;20080;-70
2020/12/12 08:24:45;;;;;;;25.90;15.85;;;3.90;99.90;;;;;;8278982;28;20049;-70
2020/12/12 08:28:46;;;;;;;25.52;14.48;;;4.10;99.90;;;;;;8273943;28;20023;-71
2020/12/12 08:32:47;;;;;;;27.75;16.63;;;4.20;99.90;;;;;;8270195;28;20037;-70
2020/12/12 08:36:48;;;;;;;26.25;15.63;;;4.50;99.90;;;;;;8275111;28;20026;-71
2020/12/12 08:40:49;;;;;;;24.80;14.93;;;4.70;99.90;;;;;;8275445;28;20036;-71
2020/12/12 08:44:50;;;;;;;30.10;18.45;;;4.70;99.90;;;;;;8278298;28;20030;-71
2020/12/12 08:48:52;;;;;;;34.15;21.38;;;4.50;99.90;;;;;;8273374;28;20026;-70
2020/12/12 08:52:52;;;;;;;37.33;21.70;;;4.40;99.90;;;;;;8261901;28;20089;-70
2020/12/12 08:57:10;;;;;;;32.85;17.80;;;4.60;99.90;;;;;;8268195;28;20035;-71
2020/12/12 09:01:19;;;;;;;35.92;19.70;;;4.70;99.90;;;;;;8273627;28;20036;-70
2020/12/12 09:05:20;;;;;;;33.45;17.27;;;5.00;99.90;;;;;;8291337;28;20454;-70
2020/12/12 09:09:25;;;;;;;27.55;14.13;;;5.10;99.90;;;;;;8287068;28;20036;-70
2020/12/12 09:13:26;;;;;;;14.80;8.68;;;5.20;99.90;;;;;;8290167;28;20113;-70
2020/12/12 09:17:27;;;;;;;11.60;7.43;;;5.40;99.90;;;;;;8292387;28;20052;-70
2020/12/12 09:21:30;;;;;;;11.25;6.68;;;5.10;99.90;;;;;;8291750;28;20064;-70
2020/12/12 09:25:31;;;;;;;9.13;5.63;;;4.90;99.90;;;;;;8290941;28;20030;-70
2020/12/12 09:29:32;;;;;;;8.98;5.55;;;;;;;;;;8276185;28;20349;-72
2020/12/12 09:33:34;;;;;;;9.07;3.60;;;4.80;99.90;;;;;;8290531;28;20040;-75
2020/12/12 09:37:34;;;;;;;4.13;2.67;;;4.70;99.90;;;;;;8291925;28;20022;-71
2020/12/12 09:41:35;;;;;;;8.02;4.90;;;4.60;99.90;;;;;;8301935;28;20108;-71
2020/12/12 09:45:36;;;;;;;8.18;4.50;;;4.50;99.90;;;;;;8291673;28;20434;-70
2020/12/12 09:49:36;;;;;;;7.60;4.57;;;4.50;99.90;;;;;;8303954;28;20046;-72
2020/12/12 09:53:38;;;;;;;8.50;4.30;;;4.60;99.90;;;;;;8284983;28;20054;-73
2020/12/12 09:57:38;;;;;;;6.50;4.30;;;4.80;99.90;;;;;;8286845;28;20029;-72
2020/12/12 10:01:39;;;;;;;7.93;3.92;;;4.80;99.90;;;;;;8286641;28;20026;-76
2020/12/12 10:05:39;;;;;;;7.63;5.18;;;4.90;99.90;;;;;;8287901;28;20104;-74
2020/12/12 10:09:40;;;;;;;6.38;3.58;;;5.00;99.90;;;;;;8296654;28;20033;-72
2020/12/12 10:13:40;;;;;;;6.47;4.43;;;5.00;99.90;;;;;;8289968;28;20388;-70
2020/12/12 10:17:41;;;;;;;6.50;3.97;;;4.70;99.90;;;;;;8289509;28;20168;-71
2020/12/12 10:21:42;;;;;;;7.13;3.78;;;4.70;99.90;;;;;;8287349;28;20025;-72
2020/12/12 10:25:42;;;;;;;8.00;5.28;;;4.70;99.90;;;;;;8286245;28;20026;-71
2020/12/12 10:29:43;;;;;;;8.27;4.72;;;4.60;99.90;;;;;;8297074;28;20037;-70
2020/12/12 10:33:43;;;;;;;7.65;4.75;;;4.60;99.90;;;;;;8296086;28;20034;-71
2020/12/12 10:37:44;;;;;;;9.13;5.50;;;4.60;99.90;;;;;;8297479;28;20080;-69
2020/12/12 10:41:45;;;;;;;8.45;4.32;;;4.60;99.90;;;;;;8283079;28;20102;-70
2020/12/12 10:45:45;;;;;;;8.57;4.32;;;4.50;99.90;;;;;;8272443;28;20026;-70
2020/12/12 10:49:46;;;;;;;11.52;5.90;;;4.40;99.90;;;;;;8279309;28;20034;-70
2020/12/12 10:53:49;;;;;;;7.60;4.22;;;4.30;99.90;;;;;;8284822;28;20430;-70
2020/12/12 10:57:49;;;;;;;9.90;5.95;;;4.30;99.90;;;;;;8295148;28;20022;-70
2020/12/12 11:01:54;;;;;;;10.00;5.95;;;4.30;99.90;;;;;;8265293;28;20597;-71
2020/12/12 11:05:55;;;;;;;11.18;4.60;;;4.30;99.90;;;;;;8274752;28;20391;-70
2020/12/12 11:09:55;;;;;;;12.05;6.65;;;4.30;99.90;;;;;;8295922;28;20037;-69
2020/12/12 11:13:56;;;;;;;11.07;6.13;;;4.40;99.90;;;;;;8295842;28;20034;-70
2020/12/12 11:17:56;;;;;;;29.50;18.83;;;4.30;99.90;;;;;;8295507;28;20029;-69
2020/12/12 11:21:57;;;;;;;10.13;5.88;;;;;;;;;;8277595;28;20423;-69
2020/12/12 11:25:58;;;;;;;7.88;4.57;;;;;;;;;;8276053;28;20036;-70
2020/12/12 11:29:59;;;;;;;11.63;5.97;;;;;;;;;;8272865;28;20046;-69
2020/12/12 11:34:06;;;;;;;9.90;6.28;;;;;;;;;;8271350;28;20026;-69
2020/12/12 11:42:34;;;;;;;11.13;6.90;;;;;;;;;;8266535;28;20508;-69
2020/12/12 11:46:39;;;;;;;9.57;4.93;;;;;;;;;;8273838;28;20018;-68
2020/12/12 11:50:40;;;;;;;11.43;6.32;;;;;;;;;;8275771;28;20030;-69
2020/12/12 11:54:41;;;;;;;10.02;6.45;;;;;;;;;;8283136;28;20034;-69
2020/12/12 11:58:41;;;;;;;12.32;6.53;;;;;;;;;;8269683;28;20479;-69
2020/12/12 12:02:43;;;;;;;11.13;5.85;;;;;;;;;;8291342;28;20026;-68
2020/12/12 12:06:43;;;;;;;11.15;6.65;;;;;;;;;;8310827;28;20197;-68
2020/12/12 12:10:54;;;;;;;12.55;6.63;;;;;;;;;;8314952;28;20033;-70
2020/12/12 12:14:55;;;;;;;10.93;6.07;;;;;;;;;;8304039;28;20033;-68
2020/12/12 12:18:56;;;;;;;10.32;6.97;;;;;;;;;;8299976;28;20037;-70
2020/12/12 12:22:57;;;;;;;11.18;7.13;;;;;;;;;;8283657;28;20088;-70
2020/12/12 12:26:58;;;;;;;9.15;5.70;;;;;;;;;;8275814;28;20037;-72
2020/12/12 12:30:59;;;;;;;11.35;5.68;;;;;;;;;;8272929;28;20485;-72
2020/12/12 12:35:01;;;;;;;16.73;9.57;;;;;;;;;;8305246;28;20496;-72
2020/12/12 12:39:02;;;;;;;12.75;8.40;;;;;;;;;;8289247;28;20411;-72
2020/12/12 12:43:03;;;;;;;19.33;10.15;;;;;;;;;;8290913;28;20026;-73
2020/12/12 12:47:04;;;;;;;54.50;27.00;;;;;;;;;;8291233;28;20025;-71
2020/12/12 12:51:08;;;;;;;7.55;4.18;;;;;;;;;;8290130;28;20033;-70
2020/12/12 12:55:10;;;;;;;13.15;9.10;;;;;;;;;;8307573;28;20396;-69
2020/12/12 12:59:11;;;;;;;11.25;8.05;;;;;;;;;;8307777;28;20026;-76
2020/12/12 13:03:12;;;;;;;11.20;7.10;;;;;;;;;;8297075;28;20831;-71
2020/12/12 13:07:13;;;;;;;9.65;5.75;;;;;;;;;;8289455;28;20050;-70
2020/12/12 13:11:14;;;;;;;12.55;6.85;;;;;;;;;;8287351;28;20030;-73
2020/12/12 13:15:15;;;;;;;11.13;6.00;;;;;;;;;;8276404;28;20045;-72
2020/12/12 13:19:38;;;;;;;14.57;8.25;;;;;;;;;;8292157;28;20064;-73
2020/12/12 13:23:39;;;;;;;8.95;5.80;;;;;;;;;;8272884;28;20021;-74
2020/12/12 13:27:43;;;;;;;13.63;7.85;;;;;;;;;;8293073;28;20022;-73
2020/12/12 13:31:46;;;;;;;17.80;10.73;;;;;;;;;;8292649;28;20025;-71
2020/12/12 13:35:47;;;;;;;14.73;9.90;;;;;;;;;;8291927;28;20029;-70
2020/12/12 13:39:48;;;;;;;13.77;8.77;;;;;;;;;;8306607;28;20057;-68
2020/12/12 13:43:49;;;;;;;10.80;6.63;;;;;;;;;;8278630;28;20169;-69
2020/12/12 13:47:50;;;;;;;14.15;8.73;;;;;;;;;;8280800;28;20027;-69
2020/12/12 13:51:51;;;;;;;10.57;5.80;;;;;;;;;;8281961;28;20635;-70
2020/12/12 13:55:52;;;;;;;12.60;8.15;;;;;;;;;;8300665;28;20104;-69
2020/12/12 13:59:53;;;;;;;14.32;9.77;;;;;;;;;;8306231;28;20084;-69
2020/12/12 14:03:54;;;;;;;12.82;7.60;;;;;;;;;;8292605;28;20026;-69
2020/12/12 14:07:56;;;;;;;12.15;7.95;;;;;;;;;;8286418;28;20113;-69
2020/12/12 14:24:56;;;;;;;12.43;7.93;;;;;;;;;;8299043;28;20550;-69
2020/12/12 14:28:57;;;;;;;16.00;9.32;;;;;;;;;;8298553;28;20034;-69
2020/12/12 14:32:58;;;;;;;14.15;8.77;;;;;;;;;;8291386;28;20026;-68
2020/12/12 14:36:59;;;;;;;14.57;9.02;;;;;;;;;;8286913;28;20037;-69
2020/12/12 14:41:00;;;;;;;34.17;20.05;;;;;;;;;;8308719;28;20022;-69
2020/12/12 14:45:01;;;;;;;8.10;4.95;;;;;;;;;;8277457;28;20494;-69
2020/12/12 14:49:02;;;;;;;30.17;16.55;;;;;;;;;;8271799;28;20030;-69
2020/12/12 14:53:03;;;;;;;36.25;21.98;;;;;;;;;;8296786;28;20057;-69
2020/12/12 14:57:04;;;;;;;20.15;12.50;;;;;;;;;;8294577;28;20438;-68
2020/12/12 15:01:05;;;;;;;20.58;11.18;;;;;;;;;;8297283;28;20041;-68
2020/12/12 15:05:07;;;;;;;17.45;10.10;;;;;;;;;;8296370;28;20371;-69
2020/12/12 15:09:08;;;;;;;17.25;10.02;;;;;;;;;;8296901;28;20446;-69
2020/12/12 15:13:09;;;;;;;20.15;11.80;;;;;;;;;;8296927;28;20030;-69
2020/12/12 15:17:10;;;;;;;16.45;9.75;;;;;;;;;;8292744;28;20153;-69
2020/12/12 15:21:11;;;;;;;17.98;10.60;;;;;;;;;;8289073;28;20084;-69
2020/12/12 15:25:15;;;;;;;18.33;10.45;;;;;;;;;;8291289;28;20034;-68
2020/12/12 15:29:16;;;;;;;16.15;10.57;;;;;;;;;;8269887;28;20022;-68
2020/12/12 15:33:35;;;;;;;17.77;10.90;;;;;;;;;;8284054;28;20033;-69
2020/12/12 15:37:36;;;;;;;20.83;11.88;;;;;;;;;;8273719;28;20146;-68
2020/12/12 15:41:37;;;;;;;9.60;5.55;;;;;;;;;;8266065;28;20038;-68
2020/12/12 15:45:37;;;;;;;21.45;13.52;;;4.20;99.90;;;;;;8278725;28;20545;-68
2020/12/12 15:49:38;;;;;;;23.60;14.10;;;4.20;99.90;;;;;;8276794;28;20033;-65
2020/12/12 15:53:39;;;;;;;21.10;12.95;;;4.30;99.90;;;;;;8288862;28;20117;-66
2020/12/12 15:57:40;;;;;;;21.50;12.48;;;4.30;99.90;;;;;;8299563;28;20030;-65
2020/12/12 16:01:42;;;;;;;22.73;11.98;;;4.20;99.90;;;;;;8288719;28;20031;-64
2020/12/12 16:05:42;;;;;;;33.38;14.18;;;4.20;99.90;;;;;;8284430;28;20523;-66
2020/12/12 16:09:43;;;;;;;24.67;13.90;;;4.20;99.90;;;;;;8291167;28;20061;-66
2020/12/12 16:13:44;;;;;;;15.80;9.07;;;4.20;99.90;;;;;;8293831;28;20116;-66
2020/12/12 16:17:50;;;;;;;22.77;12.73;;;4.20;99.90;;;;;;8287572;28;20033;-67
2020/12/12 16:21:51;;;;;;;18.40;11.27;;;4.10;99.90;;;;;;8294917;28;20061;-66
2020/12/12 16:25:52;;;;;;;20.90;13.02;;;4.20;99.90;;;;;;8293718;28;20065;-67
2020/12/12 16:29:52;;;;;;;20.02;12.70;;;4.20;99.90;;;;;;8289253;28;20091;-67
2020/12/12 16:33:53;;;;;;;21.67;13.40;;;4.20;99.90;;;;;;8294788;28;20037;-67
2020/12/12 16:37:54;;;;;;;21.85;13.77;;;4.30;99.90;;;;;;8293047;28;20033;-67
2020/12/12 16:41:56;;;;;;;24.08;14.80;;;4.30;99.90;;;;;;8293599;28;20033;-67
2020/12/12 16:45:56;;;;;;;22.60;14.60;;;4.40;99.90;;;;;;8294855;28;20017;-67
2020/12/12 16:50:01;;;;;;;22.73;13.98;;;4.30;99.90;;;;;;8294364;28;20461;-67
2020/12/12 16:54:05;;;;;;;17.25;11.52;;;4.40;99.90;;;;;;8292451;28;20483;-67
2020/12/12 16:58:07;;;;;;;22.60;13.93;;;4.40;99.90;;;;;;8292493;28;20499;-67
2020/12/12 17:02:07;;;;;;;18.92;11.07;;;4.40;99.90;;;;;;8293949;28;20075;-67
2020/12/12 17:06:08;;;;;;;23.55;13.23;;;4.40;99.90;;;;;;8293085;28;20036;-67
2020/12/12 17:10:09;;;;;;;22.45;13.32;;;4.50;99.90;;;;;;8292728;28;20507;-67
2020/12/12 17:14:10;;;;;;;29.35;16.67;;;4.40;99.90;;;;;;8293382;28;20092;-67
2020/12/12 17:18:11;;;;;;;25.55;14.07;;;4.40;99.90;;;;;;8294118;28;20014;-67
2020/12/12 17:22:11;;;;;;;24.85;14.93;;;4.40;99.90;;;;;;8272778;28;20500;-67
2020/12/12 17:26:12;;;;;;;23.83;14.93;;;4.50;99.90;;;;;;8275481;28;20042;-67
2020/12/12 17:30:15;;;;;;;29.67;20.05;;;4.40;99.90;;;;;;8282460;28;20123;-67
2020/12/12 17:34:15;;;;;;;20.17;13.32;;;4.40;99.90;;;;;;8293731;28;20168;-67
2020/12/12 17:38:16;;;;;;;23.25;15.27;;;4.40;99.90;;;;;;8292900;28;20476;-67
2020/12/12 17:42:17;;;;;;;20.20;12.82;;;4.40;99.90;;;;;;8281969;28;20033;-67
2020/12/12 17:46:18;;;;;;;24.27;15.98;;;4.40;99.90;;;;;;8285813;28;20048;-67
2020/12/12 17:50:19;;;;;;;27.30;16.05;;;4.40;99.90;;;;;;8279375;28;20028;-67
2020/12/12 17:54:20;;;;;;;24.58;16.00;;;4.50;99.90;;;;;;8276746;28;20137;-67
2020/12/12 17:58:20;;;;;;;22.02;14.30;;;4.40;99.90;;;;;;8286226;28;20044;-67
2020/12/12 18:02:21;;;;;;;28.25;18.33;;;4.50;99.90;;;;;;8279918;28;20030;-66
2020/12/12 18:06:21;;;;;;;21.02;14.13;;;4.50;99.90;;;;;;8281684;28;20191;-66
2020/12/12 18:10:22;;;;;;;20.73;13.10;;;4.40;99.90;;;;;;8293878;28;20030;-65
2020/12/12 18:14:23;;;;;;;20.45;12.98;;;4.50;99.90;;;;;;8285346;28;20054;-66
2020/12/12 18:18:24;;;;;;;16.80;10.95;;;4.50;99.90;;;;;;8283487;28;20038;-65
2020/12/12 18:22:24;;;;;;;24.27;16.48;;;4.50;99.90;;;;;;8279845;28;20403;-66
2020/12/12 18:26:25;;;;;;;26.80;18.23;;;4.50;99.90;;;;;;8285054;28;20026;-65
2020/12/12 18:30:26;;;;;;;17.25;12.88;;;4.50;99.90;;;;;;8278073;28;20033;-67
2020/12/12 18:34:27;;;;;;;15.88;11.20;;;4.40;99.90;;;;;;8279421;28;20026;-67
2020/12/12 18:38:28;;;;;;;13.60;10.65;;;4.40;99.90;;;;;;8276871;28;20081;-67
2020/12/12 18:42:29;;;;;;;11.90;8.90;;;4.50;99.90;;;;;;8273869;28;20499;-67
2020/12/12 18:46:29;;;;;;;11.05;8.32;;;4.40;99.90;;;;;;8281593;28;20081;-65
2020/12/12 18:50:32;;;;;;;11.27;8.43;;;4.50;99.90;;;;;;8273923;28;20034;-66
2020/12/12 18:54:32;;;;;;;9.50;6.70;;;4.40;99.90;;;;;;8285160;28;20868;-65
2020/12/12 18:58:33;;;;;;;9.13;6.90;;;4.50;99.90;;;;;;8290560;28;20030;-66
2020/12/12 19:02:34;;;;;;;7.60;6.40;;;4.50;99.90;;;;;;8285230;28;20395;-65
2020/12/12 19:06:35;;;;;;;11.48;7.38;;;4.50;99.90;;;;;;8283203;28;20084;-65
2020/12/12 19:10:35;;;;;;;10.27;8.30;;;4.50;99.90;;;;;;8279296;28;20022;-65
2020/12/12 19:14:37;;;;;;;9.65;7.72;;;4.40;99.90;;;;;;8284147;28;20036;-66
2020/12/12 19:18:38;;;;;;;10.15;7.90;;;4.50;99.90;;;;;;8280068;28;20030;-66
2020/12/12 19:22:39;;;;;;;7.95;6.30;;;4.40;99.90;;;;;;8280093;28;20025;-65
2020/12/12 19:26:39;;;;;;;8.10;5.25;;;4.50;99.90;;;;;;8278082;28;20083;-66
2020/12/12 19:30:40;;;;;;;8.77;6.93;;;4.40;99.90;;;;;;8275757;28;20365;-66
2020/12/12 19:34:41;;;;;;;7.13;5.60;;;4.40;99.90;;;;;;8284321;28;20092;-66
2020/12/12 19:38:42;;;;;;;8.45;6.82;;;4.40;99.90;;;;;;8288081;28;20030;-65
2020/12/12 19:42:42;;;;;;;7.20;5.88;;;4.40;99.90;;;;;;8288162;28;20029;-66
2020/12/12 19:46:43;;;;;;;8.52;6.72;;;4.30;99.90;;;;;;8290203;28;20056;-66
2020/12/12 19:50:43;;;;;;;9.40;6.10;;;4.30;99.90;;;;;;8289670;28;20026;-65
2020/12/12 19:54:44;;;;;;;6.00;5.10;;;4.40;99.90;;;;;;8288630;28;20026;-66
2020/12/12 19:58:45;;;;;;;7.60;5.97;;;4.30;99.90;;;;;;8289086;28;20022;-66
2020/12/12 20:02:46;;;;;;;7.13;5.45;;;4.10;99.90;;;;;;8273553;28;20022;-66
2020/12/12 20:06:47;;;;;;;9.30;6.45;;;4.10;99.90;;;;;;8274123;28;20018;-66
2020/12/12 20:10:47;;;;;;;8.27;5.75;;;4.00;99.90;;;;;;8275992;28;20037;-66
2020/12/12 20:14:50;;;;;;;8.98;5.88;;;4.00;99.90;;;;;;8262525;28;20057;-66
2020/12/12 20:18:51;;;;;;;4.75;3.35;;;3.90;99.90;;;;;;8258421;28;20492;-65
2020/12/12 20:22:53;;;;;;;4.90;3.75;;;3.90;99.90;;;;;;8270497;28;20081;-65
2020/12/12 20:26:56;;;;;;;5.93;4.45;;;3.90;99.90;;;;;;8274199;28;20030;-66
2020/12/12 20:30:56;;;;;;;3.78;2.67;;;3.90;99.90;;;;;;8276940;28;20439;-66
2020/12/12 20:34:57;;;;;;;5.55;4.38;;;3.90;99.90;;;;;;8285952;28;20022;-65
2020/12/12 20:38:59;;;;;;;8.13;3.38;;;3.90;99.90;;;;;;8288665;28;20073;-66
2020/12/12 20:43:02;;;;;;;3.65;2.88;;;4.00;99.90;;;;;;8288033;28;20033;-66
2020/12/12 20:47:02;;;;;;;5.30;4.60;;;3.90;99.90;;;;;;8283829;28;20109;-66
2020/12/12 20:51:03;;;;;;;5.80;4.88;;;3.90;99.90;;;;;;8284671;28;20092;-65
2020/12/12 20:55:06;;;;;;;5.75;4.00;;;3.90;99.90;;;;;;8288025;28;20554;-66
2020/12/12 20:59:07;;;;;;;5.50;3.65;;;3.90;99.90;;;;;;8288516;28;20026;-66
2020/12/12 21:03:10;;;;;;;6.40;4.50;;;3.90;99.90;;;;;;8287775;28;20025;-65
2020/12/12 21:07:13;;;;;;;5.88;4.47;;;3.90;99.90;;;;;;8270152;28;20430;-66
2020/12/12 21:11:14;;;;;;;5.03;3.63;;;3.90;99.90;;;;;;8287158;28;20113;-66
2020/12/12 21:15:14;;;;;;;3.25;2.47;;;3.80;99.90;;;;;;8288501;28;20049;-65
2020/12/12 21:19:15;;;;;;;3.35;2.38;;;3.80;99.90;;;;;;8288305;28;20084;-65
2020/12/12 21:23:16;;;;;;;8.23;5.80;;;3.80;99.90;;;;;;8293205;28;20025;-66
2020/12/12 21:27:16;;;;;;;5.65;4.55;;;3.80;99.90;;;;;;8294662;28;20030;-65
2020/12/12 21:31:17;;;;;;;6.72;4.72;;;3.90;99.90;;;;;;8293102;28;20507;-65
2020/12/12 21:35:19;;;;;;;6.95;5.47;;;4.00;99.90;;;;;;8292653;28;20032;-65
2020/12/12 21:39:20;;;;;;;7.72;5.55;;;4.00;99.90;;;;;;8293527;28;20025;-65